Stena Germanica — SKPZ — position and weather

sailwx.info

Track history (hours):
 
Tides and Currents Weather Stations Pressure Air Temp Water Temp Dewpoint Dewpoint Depression Visibility Wind Speed Wind Dir Waves Ship Positions

Stena Germanica

Last reported at 2016-May-30 08:31 UTC. Time now 2016-May-30 08:49 UTC.
Position N 54°33' E 018°30'.

Length 176 m; draft 6.6 m.

Type: Passenger vessel. MMSI: 265292000.

Date/timePositionNaut miles runAvg speedWind from/ knotsBaromVisibWave heightAir tempDewpointWater temp
2016-May-30 08:31N 54°33' E 018°30'0 0.0
2016-May-30 07:31N 54°33' E 018°30'1 1.1
2016-May-30 06:34N 54°32' E 018°32'1212.1
2016-May-30 05:34N 54°35' E 018°52'1312.6
2016-May-30 04:33N 54°47' E 018°46'1514.9
2016-May-30 03:34N 54°57' E 018°26'1514.8
2016-May-30 02:34N 55°06' E 018°06'1514.8
2016-May-30 01:34N 55°15' E 017°45'1515.0
2016-May-30 00:34N 55°23' E 017°23'1514.9
2016-May-29 23:34N 55°31' E 017°01'57 9.0
2016-May-29 17:15N 56°03' E 015°37'1515.9
2016-May-29 16:20N 55°54' E 015°57'1215.7
2016-May-29 15:34N 55°48' E 016°16'1716.9
2016-May-29 14:34N 55°39' E 016°41'1716.8
2016-May-29 13:33N 55°30' E 017°06'1716.9
2016-May-29 12:34N 55°20' E 017°31'1716.8
2016-May-29 11:34N 55°11' E 017°56'1717.0
2016-May-29 10:34N 55°02' E 018°21'1716.9
2016-May-29 09:34N 54°51' E 018°43'1515.4
2016-May-29 08:34N 54°37' E 018°55'1313.4
2016-May-29 07:34N 54°32' E 018°34'2 2.0
2016-May-29 06:31N 54°33' E 018°30'0 0.0
2016-May-29 05:33N 54°33' E 018°30'8 8.4
2016-May-29 04:33N 54°32' E 018°45'1413.7
2016-May-29 03:33N 54°46' E 018°50'1817.6
2016-May-29 02:33N 54°58' E 018°29'1817.5
2016-May-29 01:34N 55°09' E 018°04'1717.4
2016-May-29 00:33N 55°18' E 017°39'1817.7
2016-May-28 23:32N 55°28' E 017°12'6 0.5
2016-May-28 12:33N 55°25' E 017°20'1717.2
2016-May-28 11:33N 55°16' E 017°46'1717.0
2016-May-28 10:33N 55°06' E 018°09'1717.1
2016-May-28 09:33N 54°57' E 018°34'1717.2
2016-May-28 08:33N 54°44' E 018°54'1413.5
2016-May-28 07:33N 54°32' E 018°42'7 6.8
2016-May-28 06:32N 54°33' E 018°30'0 0.0
2016-May-28 05:34N 54°33' E 018°30'9 8.8
2016-May-28 04:34N 54°32' E 018°46'1211.9
2016-May-28 03:33N 54°44' E 018°53'1414.3
2016-May-28 02:33N 54°55' E 018°37'1414.1
2016-May-28 01:34N 55°03' E 018°17'1414.3
2016-May-28 00:33N 55°11' E 017°57'2814.3
2016-May-27 22:33N 55°27' E 017°15'1514.2
2016-May-27 21:30N 55°35' E 016°52'1414.3
2016-May-27 20:30N 55°42' E 016°31'39 3.2
2016-May-27 08:11N 56°05' E 015°34'1817.8
2016-May-27 07:11N 55°55' E 015°59'3318.5
2016-May-27 05:24N 55°37' E 016°49'1518.4
2016-May-27 04:33N 55°28' E 017°11'1918.5
2016-May-27 03:33N 55°18' E 017°39'1818.4
2016-May-27 02:33N 55°08' E 018°06'1918.7
2016-May-27 01:34N 54°57' E 018°33'1918.8
2016-May-27 00:33N 54°43' E 018°54'1413.7
2016-May-26 23:33N 54°32' E 018°40'6 5.8
2016-May-26 22:33N 54°33' E 018°30'2 1.6
2016-May-26 21:33N 54°32' E 018°33'1514.9
2016-May-26 20:33N 54°39' E 018°55'1716.7
2016-May-26 19:33N 54°53' E 018°39'1817.5
2016-May-26 18:33N 55°04' E 018°15'1817.8
2016-May-26 17:33N 55°14' E 017°49'1818.2
2016-May-26 16:33N 55°24' E 017°22'1 0.1
2016-May-26 04:21N 55°23' E 017°24'1215.3
2016-May-26 03:33N 55°17' E 017°42'1615.6
2016-May-26 02:33N 55°08' E 018°05'1515.5
2016-May-26 01:33N 54°59' E 018°27'1515.3
2016-May-26 00:33N 54°48' E 018°46'1413.8
2016-May-25 23:33N 54°35' E 018°54'1212.4
2016-May-25 22:33N 54°32' E 018°33'2 1.9
2016-May-25 21:33N 54°33' E 018°30'1 0.7
2016-May-25 20:34N 54°32' E 018°31'1212.4
2016-May-25 19:34N 54°35' E 018°52'1313.2
2016-May-25 18:33N 54°48' E 018°45'1515.5
2016-May-25 17:34N 54°58' E 018°25'1615.5
2016-May-25 16:34N 55°08' E 018°04'1615.5
2016-May-25 15:33N 55°16' E 017°41'1615.8
2016-May-25 14:33N 55°25' E 017°18'1515.5
2016-May-25 13:33N 55°34' E 016°55'1615.4
2016-May-25 12:31N 55°42' E 016°31'2115.4
2016-May-25 11:09N 55°54' E 015°60'19 5.0
2016-May-25 07:25N 56°06' E 015°35'1214.1
2016-May-25 06:32N 55°58' E 015°51'1514.6
2016-May-25 05:31N 55°49' E 016°12'1515.6
2016-May-25 04:32N 55°40' E 016°34'1515.8
2016-May-25 03:33N 55°32' E 016°57'1615.8
2016-May-25 02:33N 55°23' E 017°21'1615.6
2016-May-25 01:33N 55°15' E 017°44'1615.8
2016-May-25 00:33N 55°06' E 018°07'1615.9
2016-May-24 23:33N 54°58' E 018°30'1615.8
2016-May-24 22:33N 54°47' E 018°50'1413.6
2016-May-24 21:33N 54°33' E 018°51'1211.6
2016-May-24 20:33N 54°33' E 018°31'0 0.2
2016-May-24 19:33N 54°33' E 018°30'1 0.9
2016-May-24 18:33N 54°32' E 018°32'1212.3
2016-May-24 17:33N 54°35' E 018°52'1313.5
2016-May-24 16:33N 54°48' E 018°46'1615.6
2016-May-24 15:33N 54°60' E 018°27'1615.6
2016-May-24 14:34N 55°08' E 018°05'1615.5
2016-May-24 13:33N 55°17' E 017°42'1615.4
2016-May-24 12:31N 55°26' E 017°18'1515.2
2016-May-24 11:33N 55°34' E 016°57'3415.2
2016-May-24 09:18N 55°52' E 016°06'26 3.3
2016-May-24 01:28N 55°38' E 016°44'2412.6
2016-May-23 23:33N 55°25' E 017°19'1514.9
2016-May-23 22:33N 55°17' E 017°42'1815.0
2016-May-23 21:20N 55°07' E 018°08'1215.0
2016-May-23 20:33N 55°01' E 018°25'1514.9
2016-May-23 19:33N 54°50' E 018°44'1414.2
2016-May-23 18:33N 54°38' E 018°56'1312.9
2016-May-23 17:33N 54°32' E 018°37'4 3.9
2016-May-23 16:33N 54°33' E 018°30'0 0.0
2016-May-23 15:33N 54°33' E 018°30'0 0.0
2016-May-23 14:33N 54°33' E 018°30'0 0.0
2016-May-23 13:33N 54°33' E 018°30'0 0.0
2016-May-23 12:33N 54°33' E 018°30'0 0.0
2016-May-23 11:33N 54°33' E 018°30'0 0.0
2016-May-23 10:33N 54°33' E 018°30'0 0.0
2016-May-23 09:33N 54°33' E 018°30'0 0.0
2016-May-23 08:33N 54°33' E 018°30'0 0.0
2016-May-23 07:33N 54°33' E 018°30'1 1.4
2016-May-23 06:33N 54°32' E 018°32'1312.8
2016-May-23 05:33N 54°37' E 018°53'2713.6
2016-May-23 03:33N 54°59' E 018°28'1514.9
2016-May-23 02:34N 55°08' E 018°06'1514.9
2016-May-23 01:33N 55°16' E 017°44'1514.9
2016-May-23 00:33N 55°24' E 017°23'1515.0
2016-May-22 23:33N 55°33' E 017°01'8 0.8
2016-May-22 13:13N 55°28' E 017°12'1116.5
2016-May-22 12:33N 55°21' E 017°28'1616.5
2016-May-22 11:33N 55°12' E 017°52'1716.9
2016-May-22 10:33N 55°03' E 018°16'1717.0
2016-May-22 09:33N 54°53' E 018°40'1716.7
2016-May-22 08:33N 54°39' E 018°57'1414.0
2016-May-22 07:33N 54°32' E 018°36'3 3.1
2016-May-22 06:31N 54°33' E 018°30'0 0.0
2016-May-22 05:34N 54°33' E 018°30'9 8.6
2016-May-22 04:33N 54°32' E 018°45'1313.4
2016-May-22 03:33N 54°45' E 018°51'1716.6
2016-May-22 02:33N 54°58' E 018°32'1716.8
2016-May-22 01:33N 55°08' E 018°08'2216.8
2016-May-22 00:15N 55°19' E 017°36'4716.8
2016-May-21 21:29N 55°45' E 016°27'1617.3
2016-May-21 20:33N 55°53' E 016°03'1717.0
2016-May-21 19:33N 56°03' E 015°37'7 2.9
2016-May-21 17:09N 56°10' E 015°37'813.6
2016-May-21 16:33N 56°02' E 015°41'9017.3
2016-May-21 11:21N 55°12' E 017°54'1417.5
2016-May-21 10:33N 55°04' E 018°14'1817.7
2016-May-21 09:34N 54°53' E 018°38'1817.5
2016-May-21 08:33N 54°40' E 018°57'1514.5
2016-May-21 07:33N 54°32' E 018°36'4 3.6
2016-May-21 06:33N 54°33' E 018°30'0 0.0
2016-May-21 05:33N 54°33' E 018°30'8 7.9
2016-May-21 04:33N 54°32' E 018°44'1313.0
2016-May-21 03:33N 54°42' E 018°58'1313.2
2016-May-21 02:33N 54°53' E 018°43'1514.4
2016-May-21 01:32N 55°01' E 018°23'1414.5
2016-May-21 00:34N 55°09' E 018°02'2114.4
2016-May-20 23:04N 55°21' E 017°30'1014.3
2016-May-20 22:22N 55°26' E 017°16'1214.2
2016-May-20 21:33N 55°33' E 016°59'5813.7
2016-May-20 17:18N 56°07' E 015°35'  
Track history (hours):
 
Tides and Currents Weather Stations Pressure Air Temp Water Temp Dewpoint Dewpoint Depression Visibility Wind Speed Wind Dir Waves Ship Positions

Stena Germanica

Last reported at 2016-May-30 08:31 UTC. Time now 2016-May-30 08:49 UTC.
Position N 54°33' E 018°30'.

Length 176 m; draft 6.6 m.

Type: Passenger vessel. MMSI: 265292000.

Date/timePositionNaut miles runAvg speedWind from/ knotsBaromVisibWave heightAir tempDewpointWater temp
2016-May-30 08:31N 54°33' E 018°30'0 0.0
2016-May-30 07:31N 54°33' E 018°30'1 1.1
2016-May-30 06:34N 54°32' E 018°32'1212.1
2016-May-30 05:34N 54°35' E 018°52'1312.6
2016-May-30 04:33N 54°47' E 018°46'1514.9
2016-May-30 03:34N 54°57' E 018°26'1514.8
2016-May-30 02:34N 55°06' E 018°06'1514.8
2016-May-30 01:34N 55°15' E 017°45'1515.0
2016-May-30 00:34N 55°23' E 017°23'1514.9
2016-May-29 23:34N 55°31' E 017°01'57 9.0
2016-May-29 17:15N 56°03' E 015°37'1515.9
2016-May-29 16:20N 55°54' E 015°57'1215.7
2016-May-29 15:34N 55°48' E 016°16'1716.9
2016-May-29 14:34N 55°39' E 016°41'1716.8
2016-May-29 13:33N 55°30' E 017°06'1716.9
2016-May-29 12:34N 55°20' E 017°31'1716.8
2016-May-29 11:34N 55°11' E 017°56'1717.0
2016-May-29 10:34N 55°02' E 018°21'1716.9
2016-May-29 09:34N 54°51' E 018°43'1515.4
2016-May-29 08:34N 54°37' E 018°55'1313.4
2016-May-29 07:34N 54°32' E 018°34'2 2.0
2016-May-29 06:31N 54°33' E 018°30'0 0.0
2016-May-29 05:33N 54°33' E 018°30'8 8.4
2016-May-29 04:33N 54°32' E 018°45'1413.7
2016-May-29 03:33N 54°46' E 018°50'1817.6
2016-May-29 02:33N 54°58' E 018°29'1817.5
2016-May-29 01:34N 55°09' E 018°04'1717.4
2016-May-29 00:33N 55°18' E 017°39'1817.7
2016-May-28 23:32N 55°28' E 017°12'6 0.5
2016-May-28 12:33N 55°25' E 017°20'1717.2
2016-May-28 11:33N 55°16' E 017°46'1717.0
2016-May-28 10:33N 55°06' E 018°09'1717.1
2016-May-28 09:33N 54°57' E 018°34'1717.2
2016-May-28 08:33N 54°44' E 018°54'1413.5
2016-May-28 07:33N 54°32' E 018°42'7 6.8
2016-May-28 06:32N 54°33' E 018°30'0 0.0
2016-May-28 05:34N 54°33' E 018°30'9 8.8
2016-May-28 04:34N 54°32' E 018°46'1211.9
2016-May-28 03:33N 54°44' E 018°53'1414.3
2016-May-28 02:33N 54°55' E 018°37'1414.1
2016-May-28 01:34N 55°03' E 018°17'1414.3
2016-May-28 00:33N 55°11' E 017°57'2814.3
2016-May-27 22:33N 55°27' E 017°15'1514.2
2016-May-27 21:30N 55°35' E 016°52'1414.3
2016-May-27 20:30N 55°42' E 016°31'39 3.2
2016-May-27 08:11N 56°05' E 015°34'1817.8
2016-May-27 07:11N 55°55' E 015°59'3318.5
2016-May-27 05:24N 55°37' E 016°49'1518.4
2016-May-27 04:33N 55°28' E 017°11'1918.5
2016-May-27 03:33N 55°18' E 017°39'1818.4
2016-May-27 02:33N 55°08' E 018°06'1918.7
2016-May-27 01:34N 54°57' E 018°33'1918.8
2016-May-27 00:33N 54°43' E 018°54'1413.7
2016-May-26 23:33N 54°32' E 018°40'6 5.8
2016-May-26 22:33N 54°33' E 018°30'2 1.6
2016-May-26 21:33N 54°32' E 018°33'1514.9
2016-May-26 20:33N 54°39' E 018°55'1716.7
2016-May-26 19:33N 54°53' E 018°39'1817.5
2016-May-26 18:33N 55°04' E 018°15'1817.8
2016-May-26 17:33N 55°14' E 017°49'1818.2
2016-May-26 16:33N 55°24' E 017°22'1 0.1
2016-May-26 04:21N 55°23' E 017°24'1215.3
2016-May-26 03:33N 55°17' E 017°42'1615.6
2016-May-26 02:33N 55°08' E 018°05'1515.5
2016-May-26 01:33N 54°59' E 018°27'1515.3
2016-May-26 00:33N 54°48' E 018°46'1413.8
2016-May-25 23:33N 54°35' E 018°54'1212.4
2016-May-25 22:33N 54°32' E 018°33'2 1.9
2016-May-25 21:33N 54°33' E 018°30'1 0.7
2016-May-25 20:34N 54°32' E 018°31'1212.4
2016-May-25 19:34N 54°35' E 018°52'1313.2
2016-May-25 18:33N 54°48' E 018°45'1515.5
2016-May-25 17:34N 54°58' E 018°25'1615.5
2016-May-25 16:34N 55°08' E 018°04'1615.5
2016-May-25 15:33N 55°16' E 017°41'1615.8
2016-May-25 14:33N 55°25' E 017°18'1515.5
2016-May-25 13:33N 55°34' E 016°55'1615.4
2016-May-25 12:31N 55°42' E 016°31'2115.4
2016-May-25 11:09N 55°54' E 015°60'19 5.0
2016-May-25 07:25N 56°06' E 015°35'1214.1
2016-May-25 06:32N 55°58' E 015°51'1514.6
2016-May-25 05:31N 55°49' E 016°12'1515.6
2016-May-25 04:32N 55°40' E 016°34'1515.8
2016-May-25 03:33N 55°32' E 016°57'1615.8
2016-May-25 02:33N 55°23' E 017°21'1615.6
2016-May-25 01:33N 55°15' E 017°44'1615.8
2016-May-25 00:33N 55°06' E 018°07'1615.9
2016-May-24 23:33N 54°58' E 018°30'1615.8
2016-May-24 22:33N 54°47' E 018°50'1413.6
2016-May-24 21:33N 54°33' E 018°51'1211.6
2016-May-24 20:33N 54°33' E 018°31'0 0.2
2016-May-24 19:33N 54°33' E 018°30'1 0.9
2016-May-24 18:33N 54°32' E 018°32'1212.3
2016-May-24 17:33N 54°35' E 018°52'1313.5
2016-May-24 16:33N 54°48' E 018°46'1615.6
2016-May-24 15:33N 54°60' E 018°27'1615.6
2016-May-24 14:34N 55°08' E 018°05'1615.5
2016-May-24 13:33N 55°17' E 017°42'1615.4
2016-May-24 12:31N 55°26' E 017°18'1515.2
2016-May-24 11:33N 55°34' E 016°57'3415.2
2016-May-24 09:18N 55°52' E 016°06'26 3.3
2016-May-24 01:28N 55°38' E 016°44'2412.6
2016-May-23 23:33N 55°25' E 017°19'1514.9
2016-May-23 22:33N 55°17' E 017°42'1815.0
2016-May-23 21:20N 55°07' E 018°08'1215.0
2016-May-23 20:33N 55°01' E 018°25'1514.9
2016-May-23 19:33N 54°50' E 018°44'1414.2
2016-May-23 18:33N 54°38' E 018°56'1312.9
2016-May-23 17:33N 54°32' E 018°37'4 3.9
2016-May-23 16:33N 54°33' E 018°30'0 0.0
2016-May-23 15:33N 54°33' E 018°30'0 0.0
2016-May-23 14:33N 54°33' E 018°30'0 0.0
2016-May-23 13:33N 54°33' E 018°30'0 0.0
2016-May-23 12:33N 54°33' E 018°30'0 0.0
2016-May-23 11:33N 54°33' E 018°30'0 0.0
2016-May-23 10:33N 54°33' E 018°30'0 0.0
2016-May-23 09:33N 54°33' E 018°30'0 0.0
2016-May-23 08:33N 54°33' E 018°30'0 0.0
2016-May-23 07:33N 54°33' E 018°30'1 1.4
2016-May-23 06:33N 54°32' E 018°32'1312.8
2016-May-23 05:33N 54°37' E 018°53'2713.6
2016-May-23 03:33N 54°59' E 018°28'1514.9
2016-May-23 02:34N 55°08' E 018°06'1514.9
2016-May-23 01:33N 55°16' E 017°44'1514.9
2016-May-23 00:33N 55°24' E 017°23'1515.0
2016-May-22 23:33N 55°33' E 017°01'8 0.8
2016-May-22 13:13N 55°28' E 017°12'1116.5
2016-May-22 12:33N 55°21' E 017°28'1616.5
2016-May-22 11:33N 55°12' E 017°52'1716.9
2016-May-22 10:33N 55°03' E 018°16'1717.0
2016-May-22 09:33N 54°53' E 018°40'1716.7
2016-May-22 08:33N 54°39' E 018°57'1414.0
2016-May-22 07:33N 54°32' E 018°36'3 3.1
2016-May-22 06:31N 54°33' E 018°30'0 0.0
2016-May-22 05:34N 54°33' E 018°30'9 8.6
2016-May-22 04:33N 54°32' E 018°45'1313.4
2016-May-22 03:33N 54°45' E 018°51'1716.6
2016-May-22 02:33N 54°58' E 018°32'1716.8
2016-May-22 01:33N 55°08' E 018°08'2216.8
2016-May-22 00:15N 55°19' E 017°36'4716.8
2016-May-21 21:29N 55°45' E 016°27'1617.3
2016-May-21 20:33N 55°53' E 016°03'1717.0
2016-May-21 19:33N 56°03' E 015°37'7 2.9
2016-May-21 17:09N 56°10' E 015°37'813.6
2016-May-21 16:33N 56°02' E 015°41'9017.3
2016-May-21 11:21N 55°12' E 017°54'1417.5
2016-May-21 10:33N 55°04' E 018°14'1817.7
2016-May-21 09:34N 54°53' E 018°38'1817.5
2016-May-21 08:33N 54°40' E 018°57'1514.5
2016-May-21 07:33N 54°32' E 018°36'4 3.6
2016-May-21 06:33N 54°33' E 018°30'0 0.0
2016-May-21 05:33N 54°33' E 018°30'8 7.9
2016-May-21 04:33N 54°32' E 018°44'1313.0
2016-May-21 03:33N 54°42' E 018°58'1313.2
2016-May-21 02:33N 54°53' E 018°43'1514.4
2016-May-21 01:32N 55°01' E 018°23'1414.5
2016-May-21 00:34N 55°09' E 018°02'2114.4
2016-May-20 23:04N 55°21' E 017°30'1014.3
2016-May-20 22:22N 55°26' E 017°16'1214.2
2016-May-20 21:33N 55°33' E 016°59'5813.7
2016-May-20 17:18N 56°07' E 015°35'  

Dump ship's entire track history